sensor_id;sensor_type;location;lat;lon;timestamp;P1;durP1;ratioP1;P2;durP2;ratioP2
12689;SDS011;6409;56.294;14.480;2023-04-25T00:00:00;18.37;;;4.33;;
12689;SDS011;6409;56.294;14.480;2023-04-25T00:02:28;11.33;;;3.70;;
12689;SDS011;6409;56.294;14.480;2023-04-25T00:04:58;15.60;;;3.47;;
12689;SDS011;6409;56.294;14.480;2023-04-25T00:07:25;29.83;;;4.47;;
12689;SDS011;6409;56.294;14.480;2023-04-25T00:09:52;33.20;;;5.37;;
12689;SDS011;6409;56.294;14.480;2023-04-25T00:12:19;24.87;;;3.83;;
12689;SDS011;6409;56.294;14.480;2023-04-25T00:14:47;10.20;;;4.00;;
12689;SDS011;6409;56.294;14.480;2023-04-25T00:17:16;36.33;;;3.97;;
12689;SDS011;6409;56.294;14.480;2023-04-25T00:19:44;15.73;;;3.37;;
12689;SDS011;6409;56.294;14.480;2023-04-25T00:22:12;37.20;;;5.47;;
12689;SDS011;6409;56.294;14.480;2023-04-25T00:24:39;7.70;;;3.23;;
12689;SDS011;6409;56.294;14.480;2023-04-25T00:27:06;11.37;;;4.37;;
12689;SDS011;6409;56.294;14.480;2023-04-25T00:29:34;13.00;;;4.13;;
12689;SDS011;6409;56.294;14.480;2023-04-25T00:32:01;11.27;;;3.90;;
12689;SDS011;6409;56.294;14.480;2023-04-25T00:34:28;12.53;;;4.73;;
12689;SDS011;6409;56.294;14.480;2023-04-25T00:36:55;11.33;;;4.47;;
12689;SDS011;6409;56.294;14.480;2023-04-25T00:39:23;14.93;;;5.40;;
12689;SDS011;6409;56.294;14.480;2023-04-25T00:41:50;9.30;;;4.33;;
12689;SDS011;6409;56.294;14.480;2023-04-25T00:44:19;7.93;;;4.40;;
12689;SDS011;6409;56.294;14.480;2023-04-25T00:46:47;8.80;;;4.43;;
12689;SDS011;6409;56.294;14.480;2023-04-25T00:49:14;7.90;;;4.37;;
12689;SDS011;6409;56.294;14.480;2023-04-25T00:51:42;15.47;;;4.70;;
12689;SDS011;6409;56.294;14.480;2023-04-25T00:54:10;13.70;;;5.57;;
12689;SDS011;6409;56.294;14.480;2023-04-25T00:56:39;11.47;;;5.10;;
12689;SDS011;6409;56.294;14.480;2023-04-25T00:59:07;13.07;;;5.43;;
12689;SDS011;6409;56.294;14.480;2023-04-25T01:01:35;14.87;;;6.13;;
12689;SDS011;6409;56.294;14.480;2023-04-25T01:04:02;12.93;;;5.60;;
12689;SDS011;6409;56.294;14.480;2023-04-25T01:06:30;7.53;;;4.70;;
12689;SDS011;6409;56.294;14.480;2023-04-25T01:08:57;7.67;;;4.43;;
12689;SDS011;6409;56.294;14.480;2023-04-25T01:11:24;16.97;;;5.43;;
12689;SDS011;6409;56.294;14.480;2023-04-25T01:13:53;13.63;;;5.60;;
12689;SDS011;6409;56.294;14.480;2023-04-25T01:16:20;10.57;;;5.70;;
12689;SDS011;6409;56.294;14.480;2023-04-25T01:18:49;12.87;;;5.67;;
12689;SDS011;6409;56.294;14.480;2023-04-25T01:21:18;12.67;;;5.00;;
12689;SDS011;6409;56.294;14.480;2023-04-25T01:23:45;12.17;;;5.13;;
12689;SDS011;6409;56.294;14.480;2023-04-25T01:26:13;11.27;;;6.10;;
12689;SDS011;6409;56.294;14.480;2023-04-25T01:28:40;11.67;;;5.10;;
12689;SDS011;6409;56.294;14.480;2023-04-25T01:31:07;10.97;;;5.30;;
12689;SDS011;6409;56.294;14.480;2023-04-25T01:33:34;8.17;;;4.70;;
12689;SDS011;6409;56.294;14.480;2023-04-25T01:36:02;11.93;;;5.13;;
12689;SDS011;6409;56.294;14.480;2023-04-25T01:38:30;10.17;;;5.33;;
12689;SDS011;6409;56.294;14.480;2023-04-25T01:40:58;9.57;;;4.80;;
12689;SDS011;6409;56.294;14.480;2023-04-25T01:43:25;11.33;;;4.87;;
12689;SDS011;6409;56.294;14.480;2023-04-25T01:45:52;12.40;;;5.23;;
12689;SDS011;6409;56.294;14.480;2023-04-25T01:48:19;10.77;;;5.10;;
12689;SDS011;6409;56.294;14.480;2023-04-25T01:50:46;10.30;;;4.87;;
12689;SDS011;6409;56.294;14.480;2023-04-25T01:53:13;8.73;;;4.97;;
12689;SDS011;6409;56.294;14.480;2023-04-25T01:55:42;6.23;;;3.90;;
12689;SDS011;6409;56.294;14.480;2023-04-25T01:58:09;12.90;;;4.63;;
12689;SDS011;6409;56.294;14.480;2023-04-25T02:00:37;7.27;;;4.87;;
12689;SDS011;6409;56.294;14.480;2023-04-25T02:03:06;9.43;;;4.80;;
12689;SDS011;6409;56.294;14.480;2023-04-25T02:05:36;10.23;;;4.23;;
12689;SDS011;6409;56.294;14.480;2023-04-25T02:08:04;6.97;;;3.80;;
12689;SDS011;6409;56.294;14.480;2023-04-25T02:10:32;11.77;;;4.90;;
12689;SDS011;6409;56.294;14.480;2023-04-25T02:13:01;7.27;;;3.73;;
12689;SDS011;6409;56.294;14.480;2023-04-25T02:15:29;5.10;;;3.93;;
12689;SDS011;6409;56.294;14.480;2023-04-25T02:17:56;8.07;;;3.80;;
12689;SDS011;6409;56.294;14.480;2023-04-25T02:20:25;5.40;;;3.40;;
12689;SDS011;6409;56.294;14.480;2023-04-25T02:22:52;3.83;;;2.80;;
12689;SDS011;6409;56.294;14.480;2023-04-25T02:25:19;3.70;;;2.70;;
12689;SDS011;6409;56.294;14.480;2023-04-25T02:27:47;3.90;;;2.43;;
12689;SDS011;6409;56.294;14.480;2023-04-25T02:30:15;3.97;;;2.80;;
12689;SDS011;6409;56.294;14.480;2023-04-25T02:32:42;4.50;;;2.97;;
12689;SDS011;6409;56.294;14.480;2023-04-25T02:35:09;4.80;;;2.87;;
12689;SDS011;6409;56.294;14.480;2023-04-25T02:37:37;6.20;;;4.10;;
12689;SDS011;6409;56.294;14.480;2023-04-25T02:40:05;4.83;;;2.97;;
12689;SDS011;6409;56.294;14.480;2023-04-25T02:42:33;4.17;;;2.50;;
12689;SDS011;6409;56.294;14.480;2023-04-25T02:45:00;5.30;;;2.60;;
12689;SDS011;6409;56.294;14.480;2023-04-25T02:47:28;4.03;;;2.67;;
12689;SDS011;6409;56.294;14.480;2023-04-25T02:49:56;2.73;;;2.20;;
12689;SDS011;6409;56.294;14.480;2023-04-25T02:52:23;2.37;;;2.00;;
12689;SDS011;6409;56.294;14.480;2023-04-25T02:54:50;3.27;;;2.30;;
12689;SDS011;6409;56.294;14.480;2023-04-25T02:57:17;3.53;;;1.97;;
12689;SDS011;6409;56.294;14.480;2023-04-25T02:59:44;3.07;;;1.63;;
12689;SDS011;6409;56.294;14.480;2023-04-25T03:02:11;2.83;;;2.03;;
12689;SDS011;6409;56.294;14.480;2023-04-25T03:04:39;2.10;;;1.73;;
12689;SDS011;6409;56.294;14.480;2023-04-25T03:07:07;1.63;;;1.43;;
12689;SDS011;6409;56.294;14.480;2023-04-25T03:09:34;2.50;;;2.20;;
12689;SDS011;6409;56.294;14.480;2023-04-25T03:12:01;0.97;;;0.97;;
12689;SDS011;6409;56.294;14.480;2023-04-25T03:14:28;2.90;;;2.07;;
12689;SDS011;6409;56.294;14.480;2023-04-25T03:16:55;2.70;;;1.67;;
12689;SDS011;6409;56.294;14.480;2023-04-25T03:19:22;4.03;;;1.60;;
12689;SDS011;6409;56.294;14.480;2023-04-25T03:21:50;3.03;;;1.80;;
12689;SDS011;6409;56.294;14.480;2023-04-25T03:24:18;1.40;;;1.30;;
12689;SDS011;6409;56.294;14.480;2023-04-25T03:26:45;2.97;;;1.90;;
12689;SDS011;6409;56.294;14.480;2023-04-25T03:29:12;1.70;;;1.60;;
12689;SDS011;6409;56.294;14.480;2023-04-25T03:31:39;2.63;;;1.80;;
12689;SDS011;6409;56.294;14.480;2023-04-25T03:34:06;2.47;;;1.87;;
12689;SDS011;6409;56.294;14.480;2023-04-25T03:36:33;6.30;;;1.83;;
12689;SDS011;6409;56.294;14.480;2023-04-25T03:39:02;3.13;;;1.70;;
12689;SDS011;6409;56.294;14.480;2023-04-25T03:41:29;4.17;;;2.07;;
12689;SDS011;6409;56.294;14.480;2023-04-25T03:43:57;2.60;;;1.97;;
12689;SDS011;6409;56.294;14.480;2023-04-25T03:46:24;3.90;;;1.93;;
12689;SDS011;6409;56.294;14.480;2023-04-25T03:48:51;2.53;;;1.90;;
12689;SDS011;6409;56.294;14.480;2023-04-25T03:51:18;1.90;;;1.43;;
12689;SDS011;6409;56.294;14.480;2023-04-25T03:53:45;2.13;;;1.70;;
12689;SDS011;6409;56.294;14.480;2023-04-25T03:56:14;1.53;;;1.43;;
12689;SDS011;6409;56.294;14.480;2023-04-25T03:58:41;3.10;;;1.77;;
12689;SDS011;6409;56.294;14.480;2023-04-25T04:01:08;2.57;;;2.33;;
12689;SDS011;6409;56.294;14.480;2023-04-25T04:03:35;2.20;;;1.77;;
12689;SDS011;6409;56.294;14.480;2023-04-25T04:06:02;2.43;;;2.10;;
12689;SDS011;6409;56.294;14.480;2023-04-25T04:08:30;2.97;;;1.70;;
12689;SDS011;6409;56.294;14.480;2023-04-25T04:10:58;6.23;;;2.53;;
12689;SDS011;6409;56.294;14.480;2023-04-25T04:13:27;3.67;;;2.13;;
12689;SDS011;6409;56.294;14.480;2023-04-25T04:15:54;7.80;;;2.17;;
12689;SDS011;6409;56.294;14.480;2023-04-25T04:18:22;3.33;;;2.10;;
12689;SDS011;6409;56.294;14.480;2023-04-25T04:20:49;3.20;;;2.30;;
12689;SDS011;6409;56.294;14.480;2023-04-25T04:23:16;3.30;;;2.03;;
12689;SDS011;6409;56.294;14.480;2023-04-25T04:25:43;3.00;;;2.13;;
12689;SDS011;6409;56.294;14.480;2023-04-25T04:28:10;4.10;;;2.43;;
12689;SDS011;6409;56.294;14.480;2023-04-25T04:30:39;3.27;;;1.47;;
12689;SDS011;6409;56.294;14.480;2023-04-25T04:33:07;2.83;;;2.07;;
12689;SDS011;6409;56.294;14.480;2023-04-25T04:35:34;2.77;;;1.83;;
12689;SDS011;6409;56.294;14.480;2023-04-25T04:38:01;1.90;;;1.47;;
12689;SDS011;6409;56.294;14.480;2023-04-25T04:40:28;1.40;;;1.30;;
12689;SDS011;6409;56.294;14.480;2023-04-25T04:42:57;2.47;;;1.83;;
12689;SDS011;6409;56.294;14.480;2023-04-25T04:45:24;1.40;;;1.30;;
12689;SDS011;6409;56.294;14.480;2023-04-25T04:47:54;7.50;;;1.83;;
12689;SDS011;6409;56.294;14.480;2023-04-25T04:50:21;1.40;;;1.30;;
12689;SDS011;6409;56.294;14.480;2023-04-25T04:52:48;2.43;;;1.30;;
12689;SDS011;6409;56.294;14.480;2023-04-25T04:55:16;1.07;;;1.00;;
12689;SDS011;6409;56.294;14.480;2023-04-25T04:57:43;0.80;;;0.80;;
12689;SDS011;6409;56.294;14.480;2023-04-25T05:00:10;1.33;;;1.23;;
12689;SDS011;6409;56.294;14.480;2023-04-25T05:02:38;0.70;;;0.70;;
12689;SDS011;6409;56.294;14.480;2023-04-25T05:05:07;1.03;;;1.00;;
12689;SDS011;6409;56.294;14.480;2023-04-25T05:07:35;1.67;;;1.00;;
12689;SDS011;6409;56.294;14.480;2023-04-25T05:10:02;0.90;;;0.90;;
12689;SDS011;6409;56.294;14.480;2023-04-25T05:12:30;0.87;;;0.87;;
12689;SDS011;6409;56.294;14.480;2023-04-25T05:14:57;1.60;;;0.90;;
12689;SDS011;6409;56.294;14.480;2023-04-25T05:17:24;0.90;;;0.77;;
12689;SDS011;6409;56.294;14.480;2023-04-25T05:19:51;1.53;;;0.83;;
12689;SDS011;6409;56.294;14.480;2023-04-25T05:22:19;0.83;;;0.73;;
12689;SDS011;6409;56.294;14.480;2023-04-25T05:24:46;1.83;;;0.97;;
12689;SDS011;6409;56.294;14.480;2023-04-25T05:27:15;1.90;;;0.80;;
12689;SDS011;6409;56.294;14.480;2023-04-25T05:29:42;0.63;;;0.63;;
12689;SDS011;6409;56.294;14.480;2023-04-25T05:32:10;1.23;;;1.13;;
12689;SDS011;6409;56.294;14.480;2023-04-25T05:34:37;0.90;;;0.90;;
12689;SDS011;6409;56.294;14.480;2023-04-25T05:37:04;1.60;;;0.73;;
12689;SDS011;6409;56.294;14.480;2023-04-25T05:39:33;1.73;;;0.87;;
12689;SDS011;6409;56.294;14.480;2023-04-25T05:42:00;0.73;;;0.73;;
12689;SDS011;6409;56.294;14.480;2023-04-25T05:44:28;0.50;;;0.50;;
12689;SDS011;6409;56.294;14.480;2023-04-25T05:46:56;0.90;;;0.90;;
12689;SDS011;6409;56.294;14.480;2023-04-25T05:49:23;0.63;;;0.60;;
12689;SDS011;6409;56.294;14.480;2023-04-25T05:51:50;1.30;;;1.10;;
12689;SDS011;6409;56.294;14.480;2023-04-25T05:54:17;0.80;;;0.80;;
12689;SDS011;6409;56.294;14.480;2023-04-25T05:56:45;0.50;;;0.50;;
12689;SDS011;6409;56.294;14.480;2023-04-25T05:59:12;0.70;;;0.70;;
12689;SDS011;6409;56.294;14.480;2023-04-25T06:01:39;0.90;;;0.90;;
12689;SDS011;6409;56.294;14.480;2023-04-25T06:04:07;1.07;;;0.80;;
12689;SDS011;6409;56.294;14.480;2023-04-25T06:06:34;0.60;;;0.60;;
12689;SDS011;6409;56.294;14.480;2023-04-25T06:09:01;3.00;;;1.60;;
12689;SDS011;6409;56.294;14.480;2023-04-25T06:11:28;0.93;;;0.93;;
12689;SDS011;6409;56.294;14.480;2023-04-25T06:13:56;0.77;;;0.70;;
12689;SDS011;6409;56.294;14.480;2023-04-25T06:16:23;0.53;;;0.53;;
12689;SDS011;6409;56.294;14.480;2023-04-25T06:18:51;0.40;;;0.40;;
12689;SDS011;6409;56.294;14.480;2023-04-25T06:21:18;11.33;;;0.70;;
12689;SDS011;6409;56.294;14.480;2023-04-25T06:23:44;0.50;;;0.50;;
12689;SDS011;6409;56.294;14.480;2023-04-25T06:26:11;0.60;;;0.60;;
12689;SDS011;6409;56.294;14.480;2023-04-25T06:28:39;0.60;;;0.60;;
12689;SDS011;6409;56.294;14.480;2023-04-25T06:31:07;2.60;;;0.70;;
12689;SDS011;6409;56.294;14.480;2023-04-25T06:33:34;0.63;;;0.63;;
12689;SDS011;6409;56.294;14.480;2023-04-25T06:36:01;0.67;;;0.67;;
12689;SDS011;6409;56.294;14.480;2023-04-25T06:38:28;0.80;;;0.80;;
12689;SDS011;6409;56.294;14.480;2023-04-25T06:40:56;0.80;;;0.80;;
12689;SDS011;6409;56.294;14.480;2023-04-25T06:43:23;0.50;;;0.50;;
12689;SDS011;6409;56.294;14.480;2023-04-25T06:45:50;0.93;;;0.80;;
12689;SDS011;6409;56.294;14.480;2023-04-25T06:48:19;0.80;;;0.80;;
12689;SDS011;6409;56.294;14.480;2023-04-25T06:50:46;1.37;;;0.73;;
12689;SDS011;6409;56.294;14.480;2023-04-25T06:53:13;0.77;;;0.77;;
12689;SDS011;6409;56.294;14.480;2023-04-25T06:55:40;1.13;;;0.77;;
12689;SDS011;6409;56.294;14.480;2023-04-25T06:58:07;0.80;;;0.50;;
12689;SDS011;6409;56.294;14.480;2023-04-25T07:00:34;0.47;;;0.47;;
12689;SDS011;6409;56.294;14.480;2023-04-25T07:03:01;0.50;;;0.50;;
12689;SDS011;6409;56.294;14.480;2023-04-25T07:05:29;0.80;;;0.80;;
12689;SDS011;6409;56.294;14.480;2023-04-25T07:07:56;0.50;;;0.50;;
12689;SDS011;6409;56.294;14.480;2023-04-25T07:10:23;1.07;;;0.63;;
12689;SDS011;6409;56.294;14.480;2023-04-25T07:12:50;0.93;;;0.67;;
12689;SDS011;6409;56.294;14.480;2023-04-25T07:15:17;0.70;;;0.70;;
12689;SDS011;6409;56.294;14.480;2023-04-25T07:17:44;0.40;;;0.40;;
12689;SDS011;6409;56.294;14.480;2023-04-25T07:20:11;0.70;;;0.67;;
12689;SDS011;6409;56.294;14.480;2023-04-25T07:22:40;0.93;;;0.80;;
12689;SDS011;6409;56.294;14.480;2023-04-25T07:25:07;4.00;;;1.13;;
12689;SDS011;6409;56.294;14.480;2023-04-25T07:27:35;2.63;;;0.80;;
12689;SDS011;6409;56.294;14.480;2023-04-25T07:30:02;1.03;;;0.83;;
12689;SDS011;6409;56.294;14.480;2023-04-25T07:32:29;0.60;;;0.60;;
12689;SDS011;6409;56.294;14.480;2023-04-25T07:34:56;0.60;;;0.60;;
12689;SDS011;6409;56.294;14.480;2023-04-25T07:37:23;1.00;;;1.00;;
12689;SDS011;6409;56.294;14.480;2023-04-25T07:39:52;1.00;;;0.90;;
12689;SDS011;6409;56.294;14.480;2023-04-25T07:42:19;0.80;;;0.80;;
12689;SDS011;6409;56.294;14.480;2023-04-25T07:44:46;0.70;;;0.70;;
12689;SDS011;6409;56.294;14.480;2023-04-25T07:47:13;1.57;;;1.00;;
12689;SDS011;6409;56.294;14.480;2023-04-25T07:49:40;1.20;;;1.10;;
12689;SDS011;6409;56.294;14.480;2023-04-25T07:52:07;1.90;;;0.90;;
12689;SDS011;6409;56.294;14.480;2023-04-25T07:54:34;1.53;;;1.33;;
12689;SDS011;6409;56.294;14.480;2023-04-25T07:57:03;1.10;;;1.00;;
12689;SDS011;6409;56.294;14.480;2023-04-25T07:59:31;6.83;;;1.67;;
12689;SDS011;6409;56.294;14.480;2023-04-25T08:01:58;1.00;;;1.00;;
12689;SDS011;6409;56.294;14.480;2023-04-25T08:04:26;1.80;;;0.90;;
12689;SDS011;6409;56.294;14.480;2023-04-25T08:06:53;1.17;;;1.07;;
12689;SDS011;6409;56.294;14.480;2023-04-25T08:09:20;1.97;;;1.10;;
12689;SDS011;6409;56.294;14.480;2023-04-25T08:11:47;1.00;;;0.90;;
12689;SDS011;6409;56.294;14.480;2023-04-25T08:14:16;0.80;;;0.80;;
12689;SDS011;6409;56.294;14.480;2023-04-25T08:16:43;2.07;;;1.13;;
12689;SDS011;6409;56.294;14.480;2023-04-25T08:19:10;2.30;;;1.00;;
12689;SDS011;6409;56.294;14.480;2023-04-25T08:21:37;2.30;;;1.50;;
12689;SDS011;6409;56.294;14.480;2023-04-25T08:24:05;2.20;;;1.17;;
12689;SDS011;6409;56.294;14.480;2023-04-25T08:26:32;1.00;;;0.80;;
12689;SDS011;6409;56.294;14.480;2023-04-25T08:28:59;2.00;;;1.10;;
12689;SDS011;6409;56.294;14.480;2023-04-25T08:31:27;1.30;;;1.20;;
12689;SDS011;6409;56.294;14.480;2023-04-25T08:33:54;8.87;;;0.90;;
12689;SDS011;6409;56.294;14.480;2023-04-25T08:36:21;0.87;;;0.87;;
12689;SDS011;6409;56.294;14.480;2023-04-25T08:38:49;1.03;;;0.90;;
12689;SDS011;6409;56.294;14.480;2023-04-25T08:41:16;1.80;;;1.30;;
12689;SDS011;6409;56.294;14.480;2023-04-25T08:43:43;3.43;;;1.20;;
12689;SDS011;6409;56.294;14.480;2023-04-25T08:46:10;1.10;;;0.97;;
12689;SDS011;6409;56.294;14.480;2023-04-25T08:48:40;1.17;;;0.80;;
12689;SDS011;6409;56.294;14.480;2023-04-25T08:51:07;1.53;;;1.07;;
12689;SDS011;6409;56.294;14.480;2023-04-25T08:53:34;1.50;;;1.37;;
12689;SDS011;6409;56.294;14.480;2023-04-25T08:56:02;0.83;;;0.83;;
12689;SDS011;6409;56.294;14.480;2023-04-25T08:58:29;0.97;;;0.90;;
12689;SDS011;6409;56.294;14.480;2023-04-25T09:00:57;6.27;;;1.60;;
12689;SDS011;6409;56.294;14.480;2023-04-25T09:03:25;3.30;;;1.67;;
12689;SDS011;6409;56.294;14.480;2023-04-25T09:05:53;1.87;;;1.10;;
12689;SDS011;6409;56.294;14.480;2023-04-25T09:08:20;0.93;;;0.93;;
12689;SDS011;6409;56.294;14.480;2023-04-25T09:10:47;1.27;;;1.03;;
12689;SDS011;6409;56.294;14.480;2023-04-25T09:13:14;2.40;;;1.57;;
12689;SDS011;6409;56.294;14.480;2023-04-25T09:15:51;1.30;;;1.20;;
12689;SDS011;6409;56.294;14.480;2023-04-25T09:18:22;1.90;;;1.13;;
12689;SDS011;6409;56.294;14.480;2023-04-25T09:20:51;1.30;;;1.20;;
12689;SDS011;6409;56.294;14.480;2023-04-25T09:23:20;1.37;;;1.10;;
12689;SDS011;6409;56.294;14.480;2023-04-25T09:25:48;0.90;;;0.90;;
12689;SDS011;6409;56.294;14.480;2023-04-25T09:28:17;0.80;;;0.80;;
12689;SDS011;6409;56.294;14.480;2023-04-25T09:30:53;0.73;;;0.73;;
12689;SDS011;6409;56.294;14.480;2023-04-25T09:33:26;1.63;;;1.50;;
12689;SDS011;6409;56.294;14.480;2023-04-25T09:36:01;1.10;;;1.10;;
12689;SDS011;6409;56.294;14.480;2023-04-25T09:38:30;2.00;;;1.17;;
12689;SDS011;6409;56.294;14.480;2023-04-25T09:40:57;0.87;;;0.87;;
12689;SDS011;6409;56.294;14.480;2023-04-25T09:43:25;1.57;;;1.30;;
12689;SDS011;6409;56.294;14.480;2023-04-25T09:45:53;1.73;;;1.03;;
12689;SDS011;6409;56.294;14.480;2023-04-25T09:48:22;3.17;;;1.40;;
12689;SDS011;6409;56.294;14.480;2023-04-25T09:51:04;1.57;;;1.10;;
12689;SDS011;6409;56.294;14.480;2023-04-25T09:53:32;0.90;;;0.87;;
12689;SDS011;6409;56.294;14.480;2023-04-25T09:56:00;2.43;;;1.10;;
12689;SDS011;6409;56.294;14.480;2023-04-25T09:58:31;1.83;;;1.20;;
12689;SDS011;6409;56.294;14.480;2023-04-25T10:01:00;0.80;;;0.80;;
12689;SDS011;6409;56.294;14.480;2023-04-25T10:03:29;1.00;;;1.00;;
12689;SDS011;6409;56.294;14.480;2023-04-25T10:05:57;0.90;;;0.90;;
12689;SDS011;6409;56.294;14.480;2023-04-25T10:08:31;1.17;;;1.07;;
12689;SDS011;6409;56.294;14.480;2023-04-25T10:11:00;1.10;;;1.00;;
12689;SDS011;6409;56.294;14.480;2023-04-25T10:13:28;0.77;;;0.77;;
12689;SDS011;6409;56.294;14.480;2023-04-25T10:15:56;1.10;;;1.10;;
12689;SDS011;6409;56.294;14.480;2023-04-25T10:18:24;1.47;;;1.03;;
12689;SDS011;6409;56.294;14.480;2023-04-25T10:20:52;2.67;;;1.27;;
12689;SDS011;6409;56.294;14.480;2023-04-25T10:23:20;2.13;;;1.53;;
12689;SDS011;6409;56.294;14.480;2023-04-25T10:25:49;2.73;;;1.33;;
12689;SDS011;6409;56.294;14.480;2023-04-25T10:28:16;1.37;;;1.03;;
12689;SDS011;6409;56.294;14.480;2023-04-25T10:33:35;1.23;;;1.13;;
12689;SDS011;6409;56.294;14.480;2023-04-25T10:36:10;0.83;;;0.83;;
12689;SDS011;6409;56.294;14.480;2023-04-25T10:38:39;2.30;;;1.40;;
12689;SDS011;6409;56.294;14.480;2023-04-25T10:41:08;1.23;;;1.13;;
12689;SDS011;6409;56.294;14.480;2023-04-25T10:43:36;1.20;;;1.10;;
12689;SDS011;6409;56.294;14.480;2023-04-25T10:46:14;1.20;;;1.10;;
12689;SDS011;6409;56.294;14.480;2023-04-25T10:48:46;3.47;;;1.43;;
12689;SDS011;6409;56.294;14.480;2023-04-25T10:51:18;1.60;;;1.27;;
12689;SDS011;6409;56.294;14.480;2023-04-25T10:53:47;2.80;;;1.23;;
12689;SDS011;6409;56.294;14.480;2023-04-25T10:56:25;1.73;;;1.03;;
12689;SDS011;6409;56.294;14.480;2023-04-25T10:59:02;1.97;;;1.87;;
12689;SDS011;6409;56.294;14.480;2023-04-25T11:01:35;1.00;;;0.80;;
12689;SDS011;6409;56.294;14.480;2023-04-25T11:04:04;1.00;;;1.00;;
12689;SDS011;6409;56.294;14.480;2023-04-25T11:06:34;1.10;;;1.00;;
12689;SDS011;6409;56.294;14.480;2023-04-25T11:09:13;1.40;;;1.10;;
12689;SDS011;6409;56.294;14.480;2023-04-25T11:11:41;2.53;;;1.30;;
12689;SDS011;6409;56.294;14.480;2023-04-25T11:14:08;1.20;;;0.93;;
12689;SDS011;6409;56.294;14.480;2023-04-25T11:16:35;1.13;;;0.80;;
12689;SDS011;6409;56.294;14.480;2023-04-25T11:19:02;1.13;;;1.10;;
12689;SDS011;6409;56.294;14.480;2023-04-25T11:21:30;0.77;;;0.77;;
12689;SDS011;6409;56.294;14.480;2023-04-25T11:23:58;1.70;;;1.20;;
12689;SDS011;6409;56.294;14.480;2023-04-25T11:26:27;1.37;;;0.90;;
12689;SDS011;6409;56.294;14.480;2023-04-25T11:28:59;0.70;;;0.70;;
12689;SDS011;6409;56.294;14.480;2023-04-25T11:31:26;0.70;;;0.70;;
12689;SDS011;6409;56.294;14.480;2023-04-25T11:33:54;0.70;;;0.70;;
12689;SDS011;6409;56.294;14.480;2023-04-25T11:36:23;3.40;;;0.70;;
12689;SDS011;6409;56.294;14.480;2023-04-25T11:38:51;1.33;;;0.70;;
12689;SDS011;6409;56.294;14.480;2023-04-25T11:41:18;0.50;;;0.50;;
12689;SDS011;6409;56.294;14.480;2023-04-25T11:43:45;2.43;;;0.67;;
12689;SDS011;6409;56.294;14.480;2023-04-25T11:46:14;0.70;;;0.70;;
12689;SDS011;6409;56.294;14.480;2023-04-25T11:48:42;0.80;;;0.80;;
12689;SDS011;6409;56.294;14.480;2023-04-25T11:51:10;0.50;;;0.50;;
12689;SDS011;6409;56.294;14.480;2023-04-25T11:53:38;0.60;;;0.60;;
12689;SDS011;6409;56.294;14.480;2023-04-25T11:56:09;0.97;;;0.67;;
12689;SDS011;6409;56.294;14.480;2023-04-25T12:01:28;0.47;;;0.43;;
12689;SDS011;6409;56.294;14.480;2023-04-25T12:03:55;0.50;;;0.43;;
12689;SDS011;6409;56.294;14.480;2023-04-25T12:06:25;0.57;;;0.57;;
12689;SDS011;6409;56.294;14.480;2023-04-25T12:09:00;1.07;;;0.70;;
12689;SDS011;6409;56.294;14.480;2023-04-25T12:11:29;0.40;;;0.40;;
12689;SDS011;6409;56.294;14.480;2023-04-25T12:14:01;0.70;;;0.70;;
12689;SDS011;6409;56.294;14.480;2023-04-25T12:16:31;0.47;;;0.47;;
12689;SDS011;6409;56.294;14.480;2023-04-25T12:19:06;0.40;;;0.40;;
12689;SDS011;6409;56.294;14.480;2023-04-25T12:21:34;0.67;;;0.50;;
12689;SDS011;6409;56.294;14.480;2023-04-25T12:24:10;0.40;;;0.40;;
12689;SDS011;6409;56.294;14.480;2023-04-25T12:26:51;0.40;;;0.40;;
12689;SDS011;6409;56.294;14.480;2023-04-25T12:29:20;0.67;;;0.67;;
12689;SDS011;6409;56.294;14.480;2023-04-25T12:31:49;0.30;;;0.30;;
12689;SDS011;6409;56.294;14.480;2023-04-25T12:34:17;0.63;;;0.47;;
12689;SDS011;6409;56.294;14.480;2023-04-25T12:36:44;0.30;;;0.30;;
12689;SDS011;6409;56.294;14.480;2023-04-25T12:39:15;0.40;;;0.40;;
12689;SDS011;6409;56.294;14.480;2023-04-25T12:41:42;0.40;;;0.40;;
12689;SDS011;6409;56.294;14.480;2023-04-25T12:44:09;1.17;;;1.03;;
12689;SDS011;6409;56.294;14.480;2023-04-25T12:46:36;0.30;;;0.30;;
12689;SDS011;6409;56.294;14.480;2023-04-25T12:49:05;0.40;;;0.40;;
12689;SDS011;6409;56.294;14.480;2023-04-25T12:51:32;0.50;;;0.50;;
12689;SDS011;6409;56.294;14.480;2023-04-25T12:54:00;0.30;;;0.30;;
12689;SDS011;6409;56.294;14.480;2023-04-25T12:56:27;0.30;;;0.30;;
12689;SDS011;6409;56.294;14.480;2023-04-25T12:58:54;0.50;;;0.50;;
12689;SDS011;6409;56.294;14.480;2023-04-25T13:01:21;0.37;;;0.37;;
12689;SDS011;6409;56.294;14.480;2023-04-25T13:03:49;0.63;;;0.40;;
12689;SDS011;6409;56.294;14.480;2023-04-25T13:06:18;0.40;;;0.40;;
12689;SDS011;6409;56.294;14.480;2023-04-25T13:08:46;0.30;;;0.30;;
12689;SDS011;6409;56.294;14.480;2023-04-25T13:11:13;0.53;;;0.53;;
12689;SDS011;6409;56.294;14.480;2023-04-25T13:13:42;0.40;;;0.40;;
12689;SDS011;6409;56.294;14.480;2023-04-25T13:16:09;0.50;;;0.50;;
12689;SDS011;6409;56.294;14.480;2023-04-25T13:18:39;0.40;;;0.40;;
12689;SDS011;6409;56.294;14.480;2023-04-25T13:21:06;0.60;;;0.60;;
12689;SDS011;6409;56.294;14.480;2023-04-25T13:23:34;0.70;;;0.70;;
12689;SDS011;6409;56.294;14.480;2023-04-25T13:26:01;0.60;;;0.60;;
12689;SDS011;6409;56.294;14.480;2023-04-25T13:28:28;0.53;;;0.53;;
12689;SDS011;6409;56.294;14.480;2023-04-25T13:30:55;1.30;;;0.60;;
12689;SDS011;6409;56.294;14.480;2023-04-25T13:33:23;0.67;;;0.67;;
12689;SDS011;6409;56.294;14.480;2023-04-25T13:35:51;0.63;;;0.63;;
12689;SDS011;6409;56.294;14.480;2023-04-25T13:38:21;1.10;;;0.90;;
12689;SDS011;6409;56.294;14.480;2023-04-25T13:40:50;0.80;;;0.80;;
12689;SDS011;6409;56.294;14.480;2023-04-25T13:43:18;0.70;;;0.70;;
12689;SDS011;6409;56.294;14.480;2023-04-25T13:45:45;0.73;;;0.63;;
12689;SDS011;6409;56.294;14.480;2023-04-25T13:48:13;0.57;;;0.57;;
12689;SDS011;6409;56.294;14.480;2023-04-25T13:50:40;1.00;;;0.60;;
12689;SDS011;6409;56.294;14.480;2023-04-25T13:53:07;0.67;;;0.67;;
12689;SDS011;6409;56.294;14.480;2023-04-25T13:55:34;0.80;;;0.80;;
12689;SDS011;6409;56.294;14.480;2023-04-25T13:58:03;0.43;;;0.43;;
12689;SDS011;6409;56.294;14.480;2023-04-25T14:00:33;1.50;;;0.63;;
12689;SDS011;6409;56.294;14.480;2023-04-25T14:03:03;6.20;;;0.70;;
12689;SDS011;6409;56.294;14.480;2023-04-25T14:05:32;4.03;;;0.90;;
12689;SDS011;6409;56.294;14.480;2023-04-25T14:08:03;2.93;;;1.17;;
12689;SDS011;6409;56.294;14.480;2023-04-25T14:10:31;0.87;;;0.87;;
12689;SDS011;6409;56.294;14.480;2023-04-25T14:12:58;0.80;;;0.80;;
12689;SDS011;6409;56.294;14.480;2023-04-25T14:15:27;1.20;;;0.80;;
12689;SDS011;6409;56.294;14.480;2023-04-25T14:17:54;3.67;;;0.70;;
12689;SDS011;6409;56.294;14.480;2023-04-25T14:20:21;0.80;;;0.80;;
12689;SDS011;6409;56.294;14.480;2023-04-25T14:22:49;2.13;;;1.43;;
12689;SDS011;6409;56.294;14.480;2023-04-25T14:25:17;0.93;;;0.87;;
12689;SDS011;6409;56.294;14.480;2023-04-25T14:27:44;1.67;;;1.10;;
12689;SDS011;6409;56.294;14.480;2023-04-25T14:30:14;1.20;;;1.10;;
12689;SDS011;6409;56.294;14.480;2023-04-25T14:32:43;1.07;;;0.97;;
12689;SDS011;6409;56.294;14.480;2023-04-25T14:35:10;1.07;;;0.93;;
12689;SDS011;6409;56.294;14.480;2023-04-25T14:37:37;1.30;;;0.93;;
12689;SDS011;6409;56.294;14.480;2023-04-25T14:40:05;1.00;;;1.00;;
12689;SDS011;6409;56.294;14.480;2023-04-25T14:42:33;1.27;;;1.20;;
12689;SDS011;6409;56.294;14.480;2023-04-25T14:45:01;0.77;;;0.77;;
12689;SDS011;6409;56.294;14.480;2023-04-25T14:47:28;1.90;;;1.17;;
12689;SDS011;6409;56.294;14.480;2023-04-25T14:49:57;3.20;;;1.43;;
12689;SDS011;6409;56.294;14.480;2023-04-25T14:52:24;3.03;;;1.10;;
12689;SDS011;6409;56.294;14.480;2023-04-25T14:54:51;1.47;;;1.10;;